sensor_id;sensor_type;location;lat;lon;timestamp;temperature;humidity
72380;SHT30;60354;47.798;12.472;2023-01-04T00:01:42;6.07;91.67
72380;SHT30;60354;47.798;12.472;2023-01-04T00:04:08;6.00;92.09
72380;SHT30;60354;47.798;12.472;2023-01-04T00:06:34;6.00;91.99
72380;SHT30;60354;47.798;12.472;2023-01-04T00:08:59;6.02;91.81
72380;SHT30;60354;47.798;12.472;2023-01-04T00:11:25;6.02;91.82
72380;SHT30;60354;47.798;12.472;2023-01-04T00:13:52;6.02;91.91
72380;SHT30;60354;47.798;12.472;2023-01-04T00:16:21;6.02;91.88
72380;SHT30;60354;47.798;12.472;2023-01-04T00:18:48;6.00;91.85
72380;SHT30;60354;47.798;12.472;2023-01-04T00:21:21;6.00;91.75
72380;SHT30;60354;47.798;12.472;2023-01-04T00:23:49;6.03;91.72
72380;SHT30;60354;47.798;12.472;2023-01-04T00:26:18;6.09;91.63
72380;SHT30;60354;47.798;12.472;2023-01-04T00:28:44;6.06;91.84
72380;SHT30;60354;47.798;12.472;2023-01-04T00:31:12;6.09;91.84
72380;SHT30;60354;47.798;12.472;2023-01-04T00:33:39;6.12;91.94
72380;SHT30;60354;47.798;12.472;2023-01-04T00:36:12;6.09;91.45
72380;SHT30;60354;47.798;12.472;2023-01-04T00:38:41;6.07;91.09
72380;SHT30;60354;47.798;12.472;2023-01-04T00:41:08;6.07;91.02
72380;SHT30;60354;47.798;12.472;2023-01-04T00:43:33;6.07;90.83
72380;SHT30;60354;47.798;12.472;2023-01-04T00:45:59;6.09;90.69
72380;SHT30;60354;47.798;12.472;2023-01-04T00:48:29;6.07;90.73
72380;SHT30;60354;47.798;12.472;2023-01-04T00:50:55;6.06;90.38
72380;SHT30;60354;47.798;12.472;2023-01-04T00:53:20;6.03;90.28
72380;SHT30;60354;47.798;12.472;2023-01-04T00:55:46;6.00;90.25
72380;SHT30;60354;47.798;12.472;2023-01-04T00:58:11;6.03;90.27
72380;SHT30;60354;47.798;12.472;2023-01-04T01:00:37;5.93;90.72
72380;SHT30;60354;47.798;12.472;2023-01-04T01:03:04;5.92;91.03
72380;SHT30;60354;47.798;12.472;2023-01-04T01:05:32;5.86;90.93
72380;SHT30;60354;47.798;12.472;2023-01-04T01:07:58;5.85;91.10
72380;SHT30;60354;47.798;12.472;2023-01-04T01:10:43;5.83;91.07
72380;SHT30;60354;47.798;12.472;2023-01-04T01:13:08;5.76;91.11
72380;SHT30;60354;47.798;12.472;2023-01-04T01:15:34;5.78;91.11
72380;SHT30;60354;47.798;12.472;2023-01-04T01:17:59;5.76;91.06
72380;SHT30;60354;47.798;12.472;2023-01-04T01:20:25;5.75;90.95
72380;SHT30;60354;47.798;12.472;2023-01-04T01:22:50;5.75;91.00
72380;SHT30;60354;47.798;12.472;2023-01-04T01:25:16;5.73;90.97
72380;SHT30;60354;47.798;12.472;2023-01-04T01:27:41;5.73;90.90
72380;SHT30;60354;47.798;12.472;2023-01-04T01:30:07;5.73;90.89
72380;SHT30;60354;47.798;12.472;2023-01-04T01:32:33;5.72;90.81
72380;SHT30;60354;47.798;12.472;2023-01-04T01:34:58;5.75;90.64
72380;SHT30;60354;47.798;12.472;2023-01-04T01:37:24;5.73;90.67
72380;SHT30;60354;47.798;12.472;2023-01-04T01:39:49;5.73;90.62
72380;SHT30;60354;47.798;12.472;2023-01-04T01:42:19;5.78;91.38
72380;SHT30;60354;47.798;12.472;2023-01-04T01:44:57;5.69;90.49
72380;SHT30;60354;47.798;12.472;2023-01-04T01:47:27;5.73;90.66
72380;SHT30;60354;47.798;12.472;2023-01-04T01:49:55;5.75;90.49
72380;SHT30;60354;47.798;12.472;2023-01-04T01:52:24;5.72;90.65
72380;SHT30;60354;47.798;12.472;2023-01-04T01:54:55;5.73;90.79
72380;SHT30;60354;47.798;12.472;2023-01-04T01:57:25;5.72;90.81
72380;SHT30;60354;47.798;12.472;2023-01-04T01:59:53;5.65;90.80
72380;SHT30;60354;47.798;12.472;2023-01-04T02:02:19;5.65;90.78
72380;SHT30;60354;47.798;12.472;2023-01-04T02:04:48;5.69;90.99
72380;SHT30;60354;47.798;12.472;2023-01-04T02:07:18;5.66;90.66
72380;SHT30;60354;47.798;12.472;2023-01-04T02:09:45;5.66;90.55
72380;SHT30;60354;47.798;12.472;2023-01-04T02:12:12;5.68;90.46
72380;SHT30;60354;47.798;12.472;2023-01-04T02:14:39;5.66;90.53
72380;SHT30;60354;47.798;12.472;2023-01-04T02:17:26;5.66;90.50
72380;SHT30;60354;47.798;12.472;2023-01-04T02:33:53;5.56;90.44
72380;SHT30;60354;47.798;12.472;2023-01-04T02:36:34;5.66;91.24
72380;SHT30;60354;47.798;12.472;2023-01-04T02:41:50;5.59;90.32
72380;SHT30;60354;47.798;12.472;2023-01-04T02:44:18;5.59;90.49
72380;SHT30;60354;47.798;12.472;2023-01-04T02:47:09;5.63;90.22
72380;SHT30;60354;47.798;12.472;2023-01-04T02:49:35;5.65;90.91
72380;SHT30;60354;47.798;12.472;2023-01-04T02:52:21;5.63;90.44
72380;SHT30;60354;47.798;12.472;2023-01-04T02:54:50;5.59;90.73
72380;SHT30;60354;47.798;12.472;2023-01-04T03:09:02;5.40;90.41
72380;SHT30;60354;47.798;12.472;2023-01-04T03:11:52;5.41;90.43
72380;SHT30;60354;47.798;12.472;2023-01-04T03:14:43;5.34;90.24
72380;SHT30;60354;47.798;12.472;2023-01-04T03:17:12;5.40;90.49
72380;SHT30;60354;47.798;12.472;2023-01-04T03:19:40;5.37;90.49
72380;SHT30;60354;47.798;12.472;2023-01-04T03:22:18;5.38;90.56
72380;SHT30;60354;47.798;12.472;2023-01-04T03:25:06;5.40;90.30
72380;SHT30;60354;47.798;12.472;2023-01-04T03:27:53;5.41;90.21
72380;SHT30;60354;47.798;12.472;2023-01-04T03:30:44;5.41;90.05
72380;SHT30;60354;47.798;12.472;2023-01-04T03:33:30;5.41;89.99
72380;SHT30;60354;47.798;12.472;2023-01-04T03:36:44;5.37;89.96
72380;SHT30;60354;47.798;12.472;2023-01-04T03:39:17;5.38;90.13
72380;SHT30;60354;47.798;12.472;2023-01-04T03:42:16;5.37;90.10
72380;SHT30;60354;47.798;12.472;2023-01-04T03:45:13;5.37;90.06
72380;SHT30;60354;47.798;12.472;2023-01-04T03:48:07;5.37;90.03
72380;SHT30;60354;47.798;12.472;2023-01-04T03:51:15;5.32;90.19
72380;SHT30;60354;47.798;12.472;2023-01-04T03:54:02;5.31;90.06
72380;SHT30;60354;47.798;12.472;2023-01-04T03:56:30;5.40;89.99
72380;SHT30;60354;47.798;12.472;2023-01-04T03:58:56;5.35;89.94
72380;SHT30;60354;47.798;12.472;2023-01-04T04:01:24;5.37;89.75
72380;SHT30;60354;47.798;12.472;2023-01-04T04:03:50;5.42;89.59
72380;SHT30;60354;47.798;12.472;2023-01-04T04:06:34;5.44;89.67
72380;SHT30;60354;47.798;12.472;2023-01-04T04:09:19;5.50;89.33
72380;SHT30;60354;47.798;12.472;2023-01-04T04:11:44;5.50;89.24
72380;SHT30;60354;47.798;12.472;2023-01-04T04:14:09;5.54;89.07
72380;SHT30;60354;47.798;12.472;2023-01-04T04:16:35;5.54;89.04
72380;SHT30;60354;47.798;12.472;2023-01-04T04:19:00;5.58;88.86
72380;SHT30;60354;47.798;12.472;2023-01-04T04:21:27;5.58;88.89
72380;SHT30;60354;47.798;12.472;2023-01-04T04:23:56;5.59;88.83
72380;SHT30;60354;47.798;12.472;2023-01-04T04:26:21;5.63;88.89
72380;SHT30;60354;47.798;12.472;2023-01-04T04:28:49;5.65;88.68
72380;SHT30;60354;47.798;12.472;2023-01-04T04:31:14;5.65;88.69
72380;SHT30;60354;47.798;12.472;2023-01-04T04:33:40;5.66;88.64
72380;SHT30;60354;47.798;12.472;2023-01-04T04:36:06;5.65;88.64
72380;SHT30;60354;47.798;12.472;2023-01-04T04:38:33;5.69;88.28
72380;SHT30;60354;47.798;12.472;2023-01-04T04:40:58;5.69;88.26
72380;SHT30;60354;47.798;12.472;2023-01-04T04:43:43;5.71;88.27
72380;SHT30;60354;47.798;12.472;2023-01-04T04:46:08;5.68;88.36
72380;SHT30;60354;47.798;12.472;2023-01-04T04:48:34;5.65;88.47
72380;SHT30;60354;47.798;12.472;2023-01-04T04:50:59;5.65;88.26
72380;SHT30;60354;47.798;12.472;2023-01-04T04:53:24;5.75;87.88
72380;SHT30;60354;47.798;12.472;2023-01-04T04:55:51;5.81;87.72
72380;SHT30;60354;47.798;12.472;2023-01-04T04:58:17;5.75;87.93
72380;SHT30;60354;47.798;12.472;2023-01-04T05:00:42;5.78;87.80
72380;SHT30;60354;47.798;12.472;2023-01-04T05:03:08;5.75;87.77
72380;SHT30;60354;47.798;12.472;2023-01-04T05:05:33;5.79;87.45
72380;SHT30;60354;47.798;12.472;2023-01-04T05:07:59;5.78;87.40
72380;SHT30;60354;47.798;12.472;2023-01-04T05:10:24;5.73;87.89
72380;SHT30;60354;47.798;12.472;2023-01-04T05:12:49;5.76;87.79
72380;SHT30;60354;47.798;12.472;2023-01-04T05:15:36;5.73;87.70
72380;SHT30;60354;47.798;12.472;2023-01-04T05:18:03;5.69;88.19
72380;SHT30;60354;47.798;12.472;2023-01-04T05:20:29;5.65;88.32
72380;SHT30;60354;47.798;12.472;2023-01-04T05:22:55;5.65;88.18
72380;SHT30;60354;47.798;12.472;2023-01-04T05:25:20;5.65;88.24
72380;SHT30;60354;47.798;12.472;2023-01-04T05:27:46;5.63;88.45
72380;SHT30;60354;47.798;12.472;2023-01-04T05:30:13;5.63;88.11
72380;SHT30;60354;47.798;12.472;2023-01-04T05:33:00;5.65;88.07
72380;SHT30;60354;47.798;12.472;2023-01-04T05:35:25;5.63;88.22
72380;SHT30;60354;47.798;12.472;2023-01-04T05:37:51;5.62;88.17
72380;SHT30;60354;47.798;12.472;2023-01-04T05:40:17;5.62;88.10
72380;SHT30;60354;47.798;12.472;2023-01-04T05:42:43;5.63;87.98
72380;SHT30;60354;47.798;12.472;2023-01-04T05:45:09;5.68;87.78
72380;SHT30;60354;47.798;12.472;2023-01-04T05:47:34;5.68;87.79
72380;SHT30;60354;47.798;12.472;2023-01-04T05:50:01;5.75;87.27
72380;SHT30;60354;47.798;12.472;2023-01-04T05:52:27;5.76;87.37
72380;SHT30;60354;47.798;12.472;2023-01-04T05:54:52;5.78;87.06
72380;SHT30;60354;47.798;12.472;2023-01-04T05:57:18;5.82;86.84
72380;SHT30;60354;47.798;12.472;2023-01-04T05:59:43;5.81;86.83
72380;SHT30;60354;47.798;12.472;2023-01-04T06:02:21;5.83;86.44
72380;SHT30;60354;47.798;12.472;2023-01-04T06:04:47;5.83;86.52
72380;SHT30;60354;47.798;12.472;2023-01-04T06:07:14;5.86;86.13
72380;SHT30;60354;47.798;12.472;2023-01-04T06:09:39;5.82;86.42
72380;SHT30;60354;47.798;12.472;2023-01-04T06:12:05;5.88;86.02
72380;SHT30;60354;47.798;12.472;2023-01-04T06:14:31;5.89;85.86
72380;SHT30;60354;47.798;12.472;2023-01-04T06:16:56;5.88;85.96
72380;SHT30;60354;47.798;12.472;2023-01-04T06:19:23;5.85;86.18
72380;SHT30;60354;47.798;12.472;2023-01-04T06:21:49;5.83;86.23
72380;SHT30;60354;47.798;12.472;2023-01-04T06:24:14;5.82;86.19
72380;SHT30;60354;47.798;12.472;2023-01-04T06:26:40;5.81;86.03
72380;SHT30;60354;47.798;12.472;2023-01-04T06:29:05;5.82;85.81
72380;SHT30;60354;47.798;12.472;2023-01-04T06:31:31;5.89;85.57
72380;SHT30;60354;47.798;12.472;2023-01-04T06:33:58;5.85;86.05
72380;SHT30;60354;47.798;12.472;2023-01-04T06:36:23;5.79;86.41
72380;SHT30;60354;47.798;12.472;2023-01-04T06:38:49;5.76;86.25
72380;SHT30;60354;47.798;12.472;2023-01-04T06:41:14;5.82;85.79
72380;SHT30;60354;47.798;12.472;2023-01-04T06:43:40;5.83;85.66
72380;SHT30;60354;47.798;12.472;2023-01-04T06:46:05;5.78;85.88
72380;SHT30;60354;47.798;12.472;2023-01-04T06:48:31;5.75;86.06
72380;SHT30;60354;47.798;12.472;2023-01-04T06:50:56;5.72;86.37
72380;SHT30;60354;47.798;12.472;2023-01-04T06:53:22;5.71;86.28
72380;SHT30;60354;47.798;12.472;2023-01-04T06:55:47;5.75;85.94
72380;SHT30;60354;47.798;12.472;2023-01-04T06:58:12;5.76;85.91
72380;SHT30;60354;47.798;12.472;2023-01-04T07:00:38;5.73;86.02
72380;SHT30;60354;47.798;12.472;2023-01-04T07:03:03;5.79;85.79
72380;SHT30;60354;47.798;12.472;2023-01-04T07:05:29;5.81;85.56
72380;SHT30;60354;47.798;12.472;2023-01-04T07:07:54;5.79;85.51
72380;SHT30;60354;47.798;12.472;2023-01-04T07:10:20;5.76;85.72
72380;SHT30;60354;47.798;12.472;2023-01-04T07:12:45;5.73;86.01
72380;SHT30;60354;47.798;12.472;2023-01-04T07:15:11;5.71;85.81
72380;SHT30;60354;47.798;12.472;2023-01-04T07:17:36;5.72;85.96
72380;SHT30;60354;47.798;12.472;2023-01-04T07:20:02;5.73;85.66
72380;SHT30;60354;47.798;12.472;2023-01-04T07:22:29;5.81;85.50
72380;SHT30;60354;47.798;12.472;2023-01-04T07:24:54;5.76;85.76
72380;SHT30;60354;47.798;12.472;2023-01-04T07:27:20;5.75;85.56
72380;SHT30;60354;47.798;12.472;2023-01-04T07:29:45;5.76;85.53
72380;SHT30;60354;47.798;12.472;2023-01-04T07:32:11;5.73;85.69
72380;SHT30;60354;47.798;12.472;2023-01-04T07:34:37;5.75;85.71
72380;SHT30;60354;47.798;12.472;2023-01-04T07:37:04;5.72;85.54
72380;SHT30;60354;47.798;12.472;2023-01-04T07:39:33;5.75;85.59
72380;SHT30;60354;47.798;12.472;2023-01-04T07:41:59;5.71;85.69
72380;SHT30;60354;47.798;12.472;2023-01-04T07:44:24;5.72;85.60
72380;SHT30;60354;47.798;12.472;2023-01-04T07:46:52;5.75;85.50
72380;SHT30;60354;47.798;12.472;2023-01-04T07:49:17;5.75;85.43
72380;SHT30;60354;47.798;12.472;2023-01-04T07:51:46;5.76;85.09
72380;SHT30;60354;47.798;12.472;2023-01-04T07:54:13;5.82;85.01
72380;SHT30;60354;47.798;12.472;2023-01-04T07:56:39;5.82;84.87
72380;SHT30;60354;47.798;12.472;2023-01-04T07:59:06;5.85;84.57
72380;SHT30;60354;47.798;12.472;2023-01-04T08:01:32;5.88;84.42
72380;SHT30;60354;47.798;12.472;2023-01-04T08:03:59;5.88;84.54
72380;SHT30;60354;47.798;12.472;2023-01-04T08:06:25;5.89;84.50
72380;SHT30;60354;47.798;12.472;2023-01-04T08:08:51;5.88;84.47
72380;SHT30;60354;47.798;12.472;2023-01-04T08:11:19;5.86;84.75
72380;SHT30;60354;47.798;12.472;2023-01-04T08:13:47;5.96;84.20
72380;SHT30;60354;47.798;12.472;2023-01-04T08:18:45;6.10;83.72
72380;SHT30;60354;47.798;12.472;2023-01-04T08:21:11;6.17;83.14
72380;SHT30;60354;47.798;12.472;2023-01-04T08:23:36;6.24;82.97
72380;SHT30;60354;47.798;12.472;2023-01-04T08:28:28;6.29;83.17
72380;SHT30;60354;47.798;12.472;2023-01-04T08:30:53;6.44;82.83
72380;SHT30;60354;47.798;12.472;2023-01-04T08:33:19;6.44;82.53
72380;SHT30;60354;47.798;12.472;2023-01-04T08:35:44;6.44;82.64
72380;SHT30;60354;47.798;12.472;2023-01-04T08:38:10;6.54;82.18
72380;SHT30;60354;47.798;12.472;2023-01-04T08:40:35;6.65;82.02
72380;SHT30;60354;47.798;12.472;2023-01-04T08:43:00;6.75;81.58
72380;SHT30;60354;47.798;12.472;2023-01-04T08:45:26;6.91;81.28
72380;SHT30;60354;47.798;12.472;2023-01-04T08:47:51;7.06;80.69
72380;SHT30;60354;47.798;12.472;2023-01-04T08:50:17;7.12;80.36
72380;SHT30;60354;47.798;12.472;2023-01-04T08:52:44;7.23;80.23
72380;SHT30;60354;47.798;12.472;2023-01-04T08:55:10;7.27;79.96
72380;SHT30;60354;47.798;12.472;2023-01-04T08:57:35;7.33;79.44
72380;SHT30;60354;47.798;12.472;2023-01-04T09:00:02;7.43;79.48
72380;SHT30;60354;47.798;12.472;2023-01-04T09:02:27;7.53;79.08
72380;SHT30;60354;47.798;12.472;2023-01-04T09:04:53;7.59;78.34
72380;SHT30;60354;47.798;12.472;2023-01-04T09:07:29;7.69;77.86
72380;SHT30;60354;47.798;12.472;2023-01-04T09:09:54;7.69;77.73
72380;SHT30;60354;47.798;12.472;2023-01-04T09:12:21;7.73;78.18
72380;SHT30;60354;47.798;12.472;2023-01-04T09:14:47;7.77;77.88
72380;SHT30;60354;47.798;12.472;2023-01-04T09:17:12;7.78;77.97
72380;SHT30;60354;47.798;12.472;2023-01-04T09:19:38;7.84;77.47
72380;SHT30;60354;47.798;12.472;2023-01-04T09:22:03;7.91;77.52
72380;SHT30;60354;47.798;12.472;2023-01-04T09:24:31;7.94;77.35
72380;SHT30;60354;47.798;12.472;2023-01-04T09:26:57;8.02;76.90
72380;SHT30;60354;47.798;12.472;2023-01-04T09:29:22;8.09;76.64
72380;SHT30;60354;47.798;12.472;2023-01-04T09:31:49;8.15;76.61
72380;SHT30;60354;47.798;12.472;2023-01-04T09:34:14;8.18;76.08
72380;SHT30;60354;47.798;12.472;2023-01-04T09:36:40;8.21;76.22
72380;SHT30;60354;47.798;12.472;2023-01-04T09:39:05;8.28;76.14
72380;SHT30;60354;47.798;12.472;2023-01-04T09:41:35;8.39;76.20
72380;SHT30;60354;47.798;12.472;2023-01-04T09:44:12;8.48;75.04
72380;SHT30;60354;47.798;12.472;2023-01-04T09:46:46;8.57;75.36
72380;SHT30;60354;47.798;12.472;2023-01-04T09:49:25;8.63;75.45
72380;SHT30;60354;47.798;12.472;2023-01-04T09:54:29;8.76;74.62
72380;SHT30;60354;47.798;12.472;2023-01-04T09:56:57;8.81;74.31
72380;SHT30;60354;47.798;12.472;2023-01-04T09:59:31;8.84;73.68
72380;SHT30;60354;47.798;12.472;2023-01-04T10:02:12;8.90;74.13
72380;SHT30;60354;47.798;12.472;2023-01-04T10:04:46;8.94;74.02
72380;SHT30;60354;47.798;12.472;2023-01-04T10:07:33;9.00;73.94
72380;SHT30;60354;47.798;12.472;2023-01-04T10:09:59;9.01;73.51
72380;SHT30;60354;47.798;12.472;2023-01-04T10:12:47;9.07;73.75
72380;SHT30;60354;47.798;12.472;2023-01-04T10:18:24;9.25;73.06
72380;SHT30;60354;47.798;12.472;2023-01-04T10:21:06;9.08;73.18
72380;SHT30;60354;47.798;12.472;2023-01-04T10:24:02;8.99;73.19
72380;SHT30;60354;47.798;12.472;2023-01-04T10:26:39;8.99;73.47
72380;SHT30;60354;47.798;12.472;2023-01-04T10:32:02;9.25;72.65
72380;SHT30;60354;47.798;12.472;2023-01-04T10:34:32;9.36;72.64
72380;SHT30;60354;47.798;12.472;2023-01-04T10:37:18;9.31;72.15
72380;SHT30;60354;47.798;12.472;2023-01-04T10:39:47;9.45;72.03
72380;SHT30;60354;47.798;12.472;2023-01-04T10:42:17;9.52;71.71
72380;SHT30;60354;47.798;12.472;2023-01-04T10:52:23;9.36;71.98
72380;SHT30;60354;47.798;12.472;2023-01-04T10:57:42;9.28;71.88
72380;SHT30;60354;47.798;12.472;2023-01-04T11:00:18;9.27;71.74
72380;SHT30;60354;47.798;12.472;2023-01-04T11:03:12;9.27;72.23
72380;SHT30;60354;47.798;12.472;2023-01-04T11:05:56;9.31;71.93
72380;SHT30;60354;47.798;12.472;2023-01-04T11:08:31;9.31;71.74
72380;SHT30;60354;47.798;12.472;2023-01-04T11:11:09;9.35;71.89
72380;SHT30;60354;47.798;12.472;2023-01-04T11:13:36;9.36;72.06
72380;SHT30;60354;47.798;12.472;2023-01-04T11:16:04;9.34;72.04
72380;SHT30;60354;47.798;12.472;2023-01-04T11:18:30;9.38;72.25
72380;SHT30;60354;47.798;12.472;2023-01-04T11:20:57;9.32;72.40
72380;SHT30;60354;47.798;12.472;2023-01-04T11:23:24;9.32;72.57
72380;SHT30;60354;47.798;12.472;2023-01-04T11:25:56;9.32;72.50
72380;SHT30;60354;47.798;12.472;2023-01-04T11:34:12;9.32;72.48
72380;SHT30;60354;47.798;12.472;2023-01-04T11:36:40;9.39;72.70
72380;SHT30;60354;47.798;12.472;2023-01-04T11:39:23;9.38;72.05
72380;SHT30;60354;47.798;12.472;2023-01-04T11:42:16;9.48;72.48
72380;SHT30;60354;47.798;12.472;2023-01-04T11:44:56;9.46;73.13
72380;SHT30;60354;47.798;12.472;2023-01-04T11:47:22;9.45;72.80
72380;SHT30;60354;47.798;12.472;2023-01-04T11:49:50;9.44;72.49
72380;SHT30;60354;47.798;12.472;2023-01-04T11:52:34;9.46;72.32
72380;SHT30;60354;47.798;12.472;2023-01-04T11:55:14;9.56;72.92
72380;SHT30;60354;47.798;12.472;2023-01-04T11:57:40;9.65;73.00
72380;SHT30;60354;47.798;12.472;2023-01-04T12:00:14;9.59;71.97
72380;SHT30;60354;47.798;12.472;2023-01-04T12:02:40;9.45;72.20
72380;SHT30;60354;47.798;12.472;2023-01-04T12:05:16;9.51;72.48
72380;SHT30;60354;47.798;12.472;2023-01-04T12:07:42;9.48;73.09
72380;SHT30;60354;47.798;12.472;2023-01-04T12:10:21;9.56;73.01
72380;SHT30;60354;47.798;12.472;2023-01-04T12:12:50;9.46;73.21
72380;SHT30;60354;47.798;12.472;2023-01-04T12:15:20;9.44;74.20
72380;SHT30;60354;47.798;12.472;2023-01-04T12:18:03;9.41;78.25
72380;SHT30;60354;47.798;12.472;2023-01-04T12:20:30;9.41;77.05
72380;SHT30;60354;47.798;12.472;2023-01-04T12:22:56;9.36;76.86
72380;SHT30;60354;47.798;12.472;2023-01-04T12:25:48;9.27;77.16
72380;SHT30;60354;47.798;12.472;2023-01-04T12:28:39;9.24;77.66
72380;SHT30;60354;47.798;12.472;2023-01-04T12:33:50;9.14;76.99
72380;SHT30;60354;47.798;12.472;2023-01-04T12:44:01;9.17;74.46
72380;SHT30;60354;47.798;12.472;2023-01-04T12:54:46;9.34;72.94
72380;SHT30;60354;47.798;12.472;2023-01-04T13:00:09;9.45;73.31
72380;SHT30;60354;47.798;12.472;2023-01-04T13:02:43;9.42;71.13
72380;SHT30;60354;47.798;12.472;2023-01-04T13:07:49;9.41;71.57
72380;SHT30;60354;47.798;12.472;2023-01-04T13:15:37;9.31;72.55
72380;SHT30;60354;47.798;12.472;2023-01-04T13:20:50;9.27;72.69
72380;SHT30;60354;47.798;12.472;2023-01-04T13:23:15;9.25;73.04
72380;SHT30;60354;47.798;12.472;2023-01-04T13:25:41;9.28;73.12
72380;SHT30;60354;47.798;12.472;2023-01-04T13:28:15;9.27;72.96
72380;SHT30;60354;47.798;12.472;2023-01-04T13:30:41;9.32;72.71
72380;SHT30;60354;47.798;12.472;2023-01-04T13:33:18;9.32;73.04
72380;SHT30;60354;47.798;12.472;2023-01-04T13:36:03;9.31;72.85
72380;SHT30;60354;47.798;12.472;2023-01-04T13:38:34;9.31;73.79
72380;SHT30;60354;47.798;12.472;2023-01-04T13:41:01;9.27;74.01
72380;SHT30;60354;47.798;12.472;2023-01-04T13:46:18;9.15;74.00
72380;SHT30;60354;47.798;12.472;2023-01-04T13:48:45;9.11;74.56
72380;SHT30;60354;47.798;12.472;2023-01-04T13:51:29;9.14;74.59
72380;SHT30;60354;47.798;12.472;2023-01-04T13:54:00;9.13;74.70
72380;SHT30;60354;47.798;12.472;2023-01-04T13:56:28;9.14;74.55
72380;SHT30;60354;47.798;12.472;2023-01-04T13:58:54;9.15;74.11
72380;SHT30;60354;47.798;12.472;2023-01-04T14:03:52;9.13;73.53
72380;SHT30;60354;47.798;12.472;2023-01-04T14:38:29;9.15;73.17
72380;SHT30;60354;47.798;12.472;2023-01-04T14:43:50;9.03;73.62
72380;SHT30;60354;47.798;12.472;2023-01-04T14:46:20;9.00;73.37
72380;SHT30;60354;47.798;12.472;2023-01-04T14:48:46;9.03;73.10
72380;SHT30;60354;47.798;12.472;2023-01-04T14:51:15;9.05;73.09
72380;SHT30;60354;47.798;12.472;2023-01-04T14:53:41;9.03;73.24
72380;SHT30;60354;47.798;12.472;2023-01-04T14:56:11;9.03;72.92
72380;SHT30;60354;47.798;12.472;2023-01-04T14:58:36;9.01;73.23
72380;SHT30;60354;47.798;12.472;2023-01-04T15:01:02;8.99;73.90
72380;SHT30;60354;47.798;12.472;2023-01-04T15:03:27;8.97;73.88
72380;SHT30;60354;47.798;12.472;2023-01-04T15:05:53;8.99;73.56
72380;SHT30;60354;47.798;12.472;2023-01-04T15:08:18;9.01;73.17
72380;SHT30;60354;47.798;12.472;2023-01-04T15:10:44;9.07;72.00
72380;SHT30;60354;47.798;12.472;2023-01-04T15:13:10;9.15;70.78
72380;SHT30;60354;47.798;12.472;2023-01-04T15:15:36;9.18;70.84
72380;SHT30;60354;47.798;12.472;2023-01-04T15:18:01;9.18;70.73
72380;SHT30;60354;47.798;12.472;2023-01-04T15:20:27;9.23;70.57
72380;SHT30;60354;47.798;12.472;2023-01-04T15:22:52;9.18;70.83
72380;SHT30;60354;47.798;12.472;2023-01-04T15:25:18;9.20;71.14
72380;SHT30;60354;47.798;12.472;2023-01-04T15:27:43;9.18;70.91
72380;SHT30;60354;47.798;12.472;2023-01-04T15:30:12;9.15;70.90
72380;SHT30;60354;47.798;12.472;2023-01-04T15:32:38;9.18;70.55
72380;SHT30;60354;47.798;12.472;2023-01-04T15:35:04;9.21;70.66
72380;SHT30;60354;47.798;12.472;2023-01-04T15:37:30;9.20;70.84
72380;SHT30;60354;47.798;12.472;2023-01-04T15:39:55;9.17;71.18
72380;SHT30;60354;47.798;12.472;2023-01-04T15:42:21;9.13;70.91
72380;SHT30;60354;47.798;12.472;2023-01-04T15:45:05;9.13;70.97
72380;SHT30;60354;47.798;12.472;2023-01-04T15:47:31;9.18;70.49
72380;SHT30;60354;47.798;12.472;2023-01-04T15:49:58;9.20;70.72
72380;SHT30;60354;47.798;12.472;2023-01-04T15:52:23;9.13;71.10
72380;SHT30;60354;47.798;12.472;2023-01-04T15:54:49;9.17;70.66
72380;SHT30;60354;47.798;12.472;2023-01-04T15:57:14;9.15;71.00
72380;SHT30;60354;47.798;12.472;2023-01-04T15:59:40;9.21;69.79
72380;SHT30;60354;47.798;12.472;2023-01-04T16:02:06;9.15;70.64
72380;SHT30;60354;47.798;12.472;2023-01-04T16:04:34;9.11;70.89
72380;SHT30;60354;47.798;12.472;2023-01-04T16:06:59;9.08;71.13
72380;SHT30;60354;47.798;12.472;2023-01-04T16:09:25;9.08;71.53
72380;SHT30;60354;47.798;12.472;2023-01-04T16:11:50;9.01;72.01
72380;SHT30;60354;47.798;12.472;2023-01-04T16:14:34;8.99;72.07
72380;SHT30;60354;47.798;12.472;2023-01-04T16:17:00;9.00;71.75
72380;SHT30;60354;47.798;12.472;2023-01-04T16:19:25;8.99;72.13
72380;SHT30;60354;47.798;12.472;2023-01-04T16:21:51;8.97;72.09
72380;SHT30;60354;47.798;12.472;2023-01-04T16:24:17;8.97;71.83
72380;SHT30;60354;47.798;12.472;2023-01-04T16:26:43;9.00;71.38
72380;SHT30;60354;47.798;12.472;2023-01-04T16:29:10;8.97;71.42
72380;SHT30;60354;47.798;12.472;2023-01-04T16:31:36;8.99;70.82
72380;SHT30;60354;47.798;12.472;2023-01-04T16:34:03;8.97;70.95
72380;SHT30;60354;47.798;12.472;2023-01-04T16:36:28;8.97;70.53
72380;SHT30;60354;47.798;12.472;2023-01-04T16:38:54;9.04;70.11
72380;SHT30;60354;47.798;12.472;2023-01-04T16:41:20;9.08;69.81
72380;SHT30;60354;47.798;12.472;2023-01-04T16:43:48;9.08;69.93
72380;SHT30;60354;47.798;12.472;2023-01-04T16:48:44;9.05;70.48
72380;SHT30;60354;47.798;12.472;2023-01-04T16:51:11;9.00;70.93
72380;SHT30;60354;47.798;12.472;2023-01-04T16:53:37;8.96;71.19
72380;SHT30;60354;47.798;12.472;2023-01-04T16:56:06;8.96;70.31
72380;SHT30;60354;47.798;12.472;2023-01-04T16:58:32;8.93;70.58
72380;SHT30;60354;47.798;12.472;2023-01-04T17:01:08;8.96;70.13
72380;SHT30;60354;47.798;12.472;2023-01-04T17:03:35;9.07;68.07
72380;SHT30;60354;47.798;12.472;2023-01-04T17:06:05;9.13;67.84
72380;SHT30;60354;47.798;12.472;2023-01-04T17:08:31;9.14;69.02
72380;SHT30;60354;47.798;12.472;2023-01-04T17:10:56;9.14;68.97
72380;SHT30;60354;47.798;12.472;2023-01-04T17:13:22;9.10;69.19
72380;SHT30;60354;47.798;12.472;2023-01-04T17:15:47;9.03;69.54
72380;SHT30;60354;47.798;12.472;2023-01-04T17:18:13;8.97;70.11
72380;SHT30;60354;47.798;12.472;2023-01-04T17:20:41;8.88;71.28
72380;SHT30;60354;47.798;12.472;2023-01-04T17:23:06;8.87;70.36
72380;SHT30;60354;47.798;12.472;2023-01-04T17:25:32;8.84;69.91
72380;SHT30;60354;47.798;12.472;2023-01-04T17:27:57;8.80;70.30
72380;SHT30;60354;47.798;12.472;2023-01-04T17:30:23;8.76;70.62
72380;SHT30;60354;47.798;12.472;2023-01-04T17:32:48;8.76;70.40
72380;SHT30;60354;47.798;12.472;2023-01-04T17:35:14;8.72;70.29
72380;SHT30;60354;47.798;12.472;2023-01-04T17:37:39;8.70;70.12
72380;SHT30;60354;47.798;12.472;2023-01-04T17:40:05;8.73;70.67
72380;SHT30;60354;47.798;12.472;2023-01-04T17:42:31;8.74;70.33
72380;SHT30;60354;47.798;12.472;2023-01-04T17:44:57;8.80;69.62
72380;SHT30;60354;47.798;12.472;2023-01-04T17:47:27;8.84;68.68
72380;SHT30;60354;47.798;12.472;2023-01-04T17:49:52;8.86;69.15
72380;SHT30;60354;47.798;12.472;2023-01-04T17:52:18;8.86;69.41
72380;SHT30;60354;47.798;12.472;2023-01-04T17:54:43;8.86;69.64
72380;SHT30;60354;47.798;12.472;2023-01-04T17:57:08;8.83;70.03